Time;durP1;ratioP1;P1;durP2;ratioP2;P2;SDS_P1;SDS_P2;PMS_P1;PMS_P2;Temp;Humidity;BMP_temperature;BMP_pressure;BME280_temperature;BME280_humidity;BME280_pressure;Samples;Min_cycle;Max_cycle;Signal;HPM_P1;HPM_P2
2022/08/12 00:44:08;;;;;;;1999.90;999.90;;;23.00;25.20;;;;;;5012073;28;20797;-64
2022/08/12 00:46:58;;;;;;;1999.90;999.90;;;22.80;25.90;;;;;;5011901;28;20393;-64
2022/08/12 00:49:26;;;;;;;1999.90;999.90;;;22.70;26.10;;;;;;5011962;28;20399;-64
2022/08/12 00:52:10;;;;;;;1999.90;999.90;;;22.60;26.60;;;;;;5014779;28;20390;-64
2022/08/12 00:54:43;;;;;;;1999.90;999.90;;;22.60;27.40;;;;;;5016010;28;20402;-64
2022/08/12 00:57:11;;;;;;;1999.90;999.90;;;22.60;28.00;;;;;;5015638;28;21003;-64
2022/08/12 00:59:59;;;;;;;1999.90;999.90;;;22.60;28.30;;;;;;5015842;28;20408;-64
2022/08/12 01:02:32;;;;;;;1999.90;999.90;;;22.70;28.20;;;;;;5015965;28;20386;-64
2022/08/12 01:13:18;;;;;;;1999.90;999.90;;;22.40;28.20;;;;;;5015669;28;20401;-65
2022/08/12 01:15:46;;;;;;;1999.90;999.90;;;22.20;28.70;;;;;;5015427;28;20830;-65
2022/08/12 01:18:16;;;;;;;1999.90;999.90;;;22.10;29.30;;;;;;5015169;28;20414;-65
2022/08/12 01:20:51;;;;;;;1999.90;999.90;;;22.00;29.80;;;;;;5015431;28;20383;-65
2022/08/12 01:24:06;;;;;;;1999.90;999.90;;;21.90;30.70;;;;;;5015414;28;20457;-65
2022/08/12 01:26:33;;;;;;;1999.90;999.90;;;21.80;31.30;;;;;;4989585;28;20506;-65
2022/08/12 01:29:02;;;;;;;1999.90;999.90;;;21.90;32.20;;;;;;5015263;28;20769;-65
2022/08/12 01:31:28;;;;;;;1999.90;999.90;;;21.90;33.40;;;;;;5015494;28;20414;-65
2022/08/12 01:34:09;;;;;;;1999.90;999.90;;;21.80;33.70;;;;;;5015187;28;20436;-65
2022/08/12 01:36:57;;;;;;;1999.90;999.90;;;21.80;34.30;;;;;;5014826;28;20523;-65
2022/08/12 01:39:29;;;;;;;1999.90;999.90;;;21.70;34.60;;;;;;5014984;28;20383;-65
2022/08/12 01:42:03;;;;;;;1999.90;999.90;;;21.70;35.00;;;;;;5015069;28;20385;-65
2022/08/12 01:44:31;;;;;;;1999.90;999.90;;;21.60;36.20;;;;;;5015094;28;20402;-65
2022/08/12 01:47:39;;;;;;;1999.90;999.90;;;21.50;37.00;;;;;;5014593;28;20418;-65
2022/08/12 01:50:25;;;;;;;1999.90;999.90;;;21.50;38.50;;;;;;5014780;28;20493;-65
2022/08/12 01:52:54;;;;;;;1999.90;999.90;;;21.50;38.90;;;;;;5014966;28;20390;-66
2022/08/12 01:55:27;;;;;;;1999.90;999.90;;;21.40;40.10;;;;;;5014651;28;20506;-65
2022/08/12 01:58:23;;;;;;;1999.90;999.90;;;21.30;41.50;;;;;;5014608;28;20411;-64
2022/08/12 02:01:15;;;;;;;1999.90;999.90;;;21.20;43.10;;;;;;5008497;28;20428;-65
2022/08/12 02:13:13;;;;;;;1999.90;999.90;;;21.00;46.60;;;;;;5014517;28;20389;-65
2022/08/12 02:15:57;;;;;;;1999.90;999.90;;;20.90;46.40;;;;;;5014279;28;20516;-65
2022/08/12 02:18:45;;;;;;;1999.90;999.90;;;20.70;48.20;;;;;;5014424;28;20837;-65
2022/08/12 02:21:33;;;;;;;1999.90;999.90;;;20.70;50.20;;;;;;5014294;28;20915;-65
2022/08/12 02:23:59;;;;;;;1999.90;999.90;;;20.60;51.20;;;;;;5014381;28;20390;-65
2022/08/12 02:26:29;;;;;;;1999.90;999.90;;;20.50;52.70;;;;;;5013916;28;20431;-65
2022/08/12 02:28:56;;;;;;;1999.90;999.90;;;20.50;55.10;;;;;;5014169;28;20471;-65
2022/08/12 02:31:23;;;;;;;1999.90;999.90;;;20.40;57.60;;;;;;5014056;28;20769;-65
2022/08/12 02:33:49;;;;;;;1999.90;999.90;;;20.40;58.20;;;;;;5014290;28;20421;-64
2022/08/12 02:36:15;;;;;;;1999.90;999.90;;;20.40;59.40;;;;;;5013523;28;20964;-65
2022/08/12 02:38:42;;;;;;;1999.90;999.90;;;20.30;62.60;;;;;;5013991;28;20412;-64
2022/08/12 02:41:11;;;;;;;1999.90;999.90;;;20.20;64.60;;;;;;5014078;28;20397;-64
2022/08/12 02:43:49;;;;;;;1999.90;999.90;;;20.10;66.00;;;;;;5013903;28;20412;-65
2022/08/12 02:46:19;;;;;;;1999.90;999.90;;;20.10;67.50;;;;;;5013459;28;20440;-65
2022/08/12 02:48:56;;;;;;;1999.90;999.90;;;20.10;68.90;;;;;;5014043;28;20835;-64
2022/08/12 02:51:37;;;;;;;1999.90;999.90;;;20.10;72.00;;;;;;5013774;28;20441;-64
2022/08/12 02:54:04;;;;;;;1999.90;999.90;;;20.10;74.80;;;;;;5013798;28;20413;-65
2022/08/12 02:56:30;;;;;;;1999.90;999.90;;;20.10;78.10;;;;;;5013342;28;20938;-65
2022/08/12 02:58:57;;;;;;;1999.90;999.90;;;20.10;79.50;;;;;;5013811;28;20406;-65
2022/08/12 03:01:32;;;;;;;1999.90;999.90;;;20.10;80.60;;;;;;5013579;28;20176;-65
2022/08/12 03:04:00;;;;;;;1999.90;999.90;;;20.00;81.60;;;;;;5013740;28;20787;-64
2022/08/12 03:06:42;;;;;;;1999.90;999.90;;;19.90;80.90;;;;;;5013165;28;20422;-65
2022/08/12 03:09:13;;;;;;;1999.90;999.90;;;19.80;82.10;;;;;;5013435;28;20401;-65
2022/08/12 03:11:44;;;;;;;1999.90;999.90;;;19.70;83.20;;;;;;5013586;28;20489;-64
2022/08/12 03:14:13;;;;;;;1999.90;999.90;;;19.60;84.80;;;;;;5012370;28;20401;-65
2022/08/12 03:16:40;;;;;;;1999.90;999.90;;;19.60;88.70;;;;;;5012944;28;20449;-64
2022/08/12 03:19:06;;;;;;;1999.90;999.90;;;19.50;91.30;;;;;;5013239;28;20372;-64
2022/08/12 03:21:36;;;;;;;1999.90;999.90;;;19.50;93.20;;;;;;5013195;28;20787;-64
2022/08/12 03:24:03;;;;;;;1999.90;999.90;;;19.40;94.80;;;;;;5013222;28;20398;-64
2022/08/12 03:26:33;;;;;;;1999.90;999.90;;;19.40;95.50;;;;;;5012887;28;20788;-65
2022/08/12 03:29:03;;;;;;;1999.90;999.90;;;19.40;95.80;;;;;;5013190;28;20831;-65
2022/08/12 03:31:32;;;;;;;1999.90;999.90;;;19.30;96.70;;;;;;5013099;28;20450;-64
2022/08/12 03:34:10;;;;;;;1999.90;999.90;;;19.40;97.30;;;;;;5012970;28;20467;-65
2022/08/12 03:36:39;;;;;;;1999.90;999.90;;;19.40;97.20;;;;;;5058348;22;20501;-70
2022/08/12 03:42:15;;;;;;;1999.90;999.90;;;19.40;96.10;;;;;;5022759;28;20393;-70
2022/08/12 04:01:51;;;;;;;1999.90;999.90;;;18.90;99.90;;;;;;5003660;28;20408;-70
2022/08/12 04:04:17;;;;;;;1999.90;999.90;;;18.80;99.90;;;;;;5002482;28;20433;-70
2022/08/12 04:06:46;;;;;;;1999.90;999.90;;;18.90;99.90;;;;;;5003184;28;20433;-69
2022/08/12 04:09:12;;;;;;;1999.90;999.90;;;18.90;99.90;;;;;;5002171;28;20409;-69
2022/08/12 04:14:26;;;;;;;1999.90;999.90;;;18.80;99.90;;;;;;5002975;28;20622;-70
2022/08/12 04:16:54;;;;;;;1999.90;999.90;;;18.80;99.90;;;;;;5002946;28;20465;-69
2022/08/12 04:19:23;;;;;;;1999.90;999.90;;;18.80;99.90;;;;;;5002781;28;20411;-69
2022/08/12 04:21:48;;;;;;;1999.90;999.90;;;18.80;99.90;;;;;;5003317;28;20412;-69
2022/08/12 04:24:17;;;;;;;1999.90;999.90;;;18.70;99.90;;;;;;5004441;28;20413;-69
2022/08/12 04:26:43;;;;;;;1999.90;999.90;;;18.60;99.90;;;;;;5002615;28;20696;-69
2022/08/12 04:29:09;;;;;;;1999.90;999.90;;;18.60;99.90;;;;;;5002668;28;20421;-69
2022/08/12 04:31:40;;;;;;;1999.90;999.90;;;18.50;99.90;;;;;;5003274;28;20924;-69
2022/08/12 04:34:07;;;;;;;1999.90;999.90;;;18.50;99.90;;;;;;5002115;28;20437;-70
2022/08/12 04:36:34;;;;;;;1999.90;999.90;;;18.50;99.90;;;;;;4994278;28;20526;-69
2022/08/12 04:39:02;;;;;;;1999.90;999.90;;;18.50;99.90;;;;;;4994255;28;20459;-69
2022/08/12 04:41:28;;;;;;;1999.90;999.90;;;18.40;99.90;;;;;;4993329;28;20413;-70
2022/08/12 04:43:54;;;;;;;1999.90;999.90;;;18.40;99.90;;;;;;4993185;28;20421;-70
2022/08/12 04:46:20;;;;;;;1999.90;999.90;;;18.30;99.90;;;;;;4993021;28;20528;-69
2022/08/12 04:48:47;;;;;;;1999.90;999.90;;;18.40;99.90;;;;;;4993413;28;20420;-69
2022/08/12 04:51:13;;;;;;;1999.90;999.90;;;18.40;99.90;;;;;;5000700;28;20460;-69
2022/08/12 04:53:42;;;;;;;1999.90;999.90;;;18.40;99.90;;;;;;5002444;28;20784;-69
2022/08/12 04:56:09;;;;;;;1999.90;999.90;;;18.40;99.90;;;;;;5002442;28;20215;-69
2022/08/12 04:58:36;;;;;;;1999.90;999.90;;;18.50;99.90;;;;;;5003004;28;20424;-69
2022/08/12 05:01:02;;;;;;;1999.90;999.90;;;18.40;99.90;;;;;;5002382;28;20430;-70
2022/08/12 05:03:27;;;;;;;1999.90;999.90;;;18.50;99.90;;;;;;5002830;28;20412;-69
2022/08/12 05:05:56;;;;;;;1999.90;999.90;;;18.50;99.90;;;;;;5001944;28;20417;-69
2022/08/12 05:08:23;;;;;;;1999.90;999.90;;;18.50;99.90;;;;;;4993750;28;20188;-69
2022/08/12 05:10:48;;;;;;;1999.90;999.90;;;18.50;99.90;;;;;;5002600;28;20409;-69
2022/08/12 05:13:37;;;;;;;1999.90;999.90;;;18.60;99.90;;;;;;5003543;28;20427;-70
2022/08/12 05:16:07;;;;;;;1999.90;999.90;;;18.80;99.90;;;;;;5002797;28;20467;-69
2022/08/12 05:18:34;;;;;;;1999.90;999.90;;;18.90;99.90;;;;;;5002070;28;20426;-68
2022/08/12 05:21:00;;;;;;;1999.90;999.90;;;19.00;99.90;;;;;;5002459;28;20417;-70
2022/08/12 05:23:27;;;;;;;1999.90;999.90;;;19.10;99.90;;;;;;5002340;28;20450;-70
2022/08/12 05:25:55;;;;;;;1999.90;999.90;;;19.20;99.90;;;;;;5002323;28;20444;-70
2022/08/12 05:28:21;;;;;;;1999.90;999.90;;;19.30;99.90;;;;;;5002078;28;20449;-70
2022/08/12 05:30:47;;;;;;;1999.90;999.90;;;19.30;99.90;;;;;;5002483;28;20427;-70
2022/08/12 05:33:14;;;;;;;1999.90;999.90;;;19.50;99.90;;;;;;5002899;28;20418;-70
2022/08/12 05:35:43;;;;;;;1999.90;999.90;;;19.60;99.90;;;;;;5002167;28;20549;-69
2022/08/12 05:40:55;;;;;;;1999.90;999.90;;;19.70;99.90;;;;;;5005470;28;20404;-70
2022/08/12 05:43:21;;;;;;;1999.90;999.90;;;19.80;99.90;;;;;;5004367;28;20426;-70
2022/08/12 05:45:48;;;;;;;1999.90;999.90;;;19.90;99.90;;;;;;5003803;28;20433;-70
2022/08/12 05:48:14;;;;;;;1999.90;999.90;;;19.90;99.90;;;;;;5004275;28;20420;-70
2022/08/12 05:50:41;;;;;;;1999.90;999.90;;;20.00;99.90;;;;;;5004143;28;20413;-69
2022/08/12 05:53:06;;;;;;;1999.90;999.90;;;20.10;99.90;;;;;;5003439;28;20433;-69
2022/08/12 05:55:34;;;;;;;1999.90;999.90;;;20.10;99.90;;;;;;4998652;28;20502;-70
2022/08/12 05:58:01;;;;;;;1999.90;999.90;;;20.20;99.90;;;;;;4994925;28;20179;-70
2022/08/12 06:00:30;;;;;;;1999.90;999.90;;;20.30;99.90;;;;;;4995154;28;20404;-67
2022/08/12 06:02:59;;;;;;;1999.90;999.90;;;20.30;99.90;;;;;;4995284;28;20420;-67
2022/08/12 06:05:33;;;;;;;1999.90;999.90;;;20.40;99.90;;;;;;4995017;28;20428;-67
2022/08/12 06:08:00;;;;;;;1999.90;999.90;;;20.50;99.90;;;;;;4994820;28;20440;-67
2022/08/12 06:10:26;;;;;;;1999.90;999.90;;;20.70;99.90;;;;;;4994943;28;20429;-67
2022/08/12 06:12:52;;;;;;;1999.90;999.90;;;20.80;99.90;;;;;;4994946;28;20412;-67
2022/08/12 06:15:19;;;;;;;1999.90;999.90;;;20.90;99.90;;;;;;4994928;28;20207;-67
2022/08/12 06:17:45;;;;;;;1999.90;999.90;;;20.90;99.90;;;;;;4994653;28;20393;-68
2022/08/12 06:20:14;;;;;;;1999.90;999.90;;;21.10;99.90;;;;;;4994856;28;20398;-67
2022/08/12 06:22:40;;;;;;;1999.90;999.90;;;21.10;99.90;;;;;;4994642;28;20412;-67
2022/08/12 06:25:06;;;;;;;1999.90;999.90;;;21.20;99.90;;;;;;4994646;28;20451;-67
2022/08/12 06:27:33;;;;;;;1999.90;999.90;;;21.30;99.90;;;;;;4991131;28;20483;-67
2022/08/12 06:30:01;;;;;;;1999.90;999.90;;;21.40;99.90;;;;;;4975045;28;20440;-67
2022/08/12 06:32:27;;;;;;;1999.90;999.90;;;21.50;99.80;;;;;;4975012;28;20942;-67
2022/08/12 06:34:55;;;;;;;1999.90;999.90;;;21.50;99.40;;;;;;4977429;28;20413;-66
2022/08/12 06:37:21;;;;;;;1999.90;999.90;;;21.50;99.20;;;;;;4974306;28;20442;-67
2022/08/12 06:39:47;;;;;;;1999.90;999.90;;;21.60;99.10;;;;;;4985441;28;20424;-67
2022/08/12 06:44:57;;;;;;;1999.90;999.90;;;21.70;98.70;;;;;;4994372;28;20562;-66
2022/08/12 06:47:22;;;;;;;1999.90;999.90;;;21.80;98.60;;;;;;4993936;28;20439;-69
2022/08/12 06:49:50;;;;;;;1999.90;999.90;;;21.90;98.60;;;;;;4993976;28;20192;-69
2022/08/12 06:52:16;;;;;;;1999.90;999.90;;;22.00;98.80;;;;;;4994390;28;20192;-70
2022/08/12 06:54:44;;;;;;;1999.90;999.90;;;22.10;98.80;;;;;;4994139;28;20897;-69
2022/08/12 06:57:10;;;;;;;1999.90;999.90;;;22.30;98.70;;;;;;4993700;28;20205;-70
2022/08/12 06:59:39;;;;;;;1999.90;999.90;;;22.40;98.20;;;;;;4999097;28;20788;-70
2022/08/12 07:02:07;;;;;;;1999.90;999.90;;;22.50;97.40;;;;;;4996684;28;20253;-70
2022/08/12 07:04:34;;;;;;;1999.90;999.90;;;22.50;96.40;;;;;;4994324;28;20893;-70
2022/08/12 07:07:00;;;;;;;1999.90;999.90;;;22.70;96.70;;;;;;4993837;28;20493;-69
2022/08/12 07:09:26;;;;;;;1999.90;999.90;;;22.80;95.20;;;;;;4994245;28;20482;-70
2022/08/12 07:11:52;;;;;;;1999.90;999.90;;;22.90;94.90;;;;;;4994031;28;20194;-70
2022/08/12 07:14:18;;;;;;;1999.90;999.90;;;23.10;93.70;;;;;;4994039;28;20413;-70
2022/08/12 07:16:55;;;;;;;1999.90;999.90;;;23.20;93.00;;;;;;4993643;28;20214;-70
2022/08/12 07:19:21;;;;;;;1999.90;999.90;;;23.30;93.30;;;;;;4994312;28;20864;-70
2022/08/12 07:21:48;;;;;;;1999.90;999.90;;;23.40;92.10;;;;;;4994034;28;20398;-70
2022/08/12 07:24:14;;;;;;;1999.90;999.90;;;23.50;91.60;;;;;;4993855;28;20395;-70
2022/08/12 07:26:40;;;;;;;1999.90;999.90;;;23.60;90.60;;;;;;4993528;28;20450;-70
2022/08/12 07:29:09;;;;;;;1999.90;999.90;;;23.70;90.50;;;;;;4994019;28;20463;-70
2022/08/12 07:31:38;;;;;;;1999.90;999.90;;;23.80;88.30;;;;;;4993810;28;20387;-70
2022/08/12 07:34:04;;;;;;;1999.90;999.90;;;23.90;88.30;;;;;;4971880;28;20421;-69
2022/08/12 07:36:32;;;;;;;1999.90;999.90;;;23.90;85.80;;;;;;4972994;28;20471;-70
2022/08/12 07:38:59;;;;;;;1999.90;999.90;;;23.90;86.70;;;;;;4973790;28;20468;-70
2022/08/12 07:41:29;;;;;;;1999.90;999.90;;;24.00;80.40;;;;;;4974807;28;20410;-69
2022/08/12 07:43:56;;;;;;;1999.90;999.90;;;24.20;79.20;;;;;;4973568;28;20448;-70
2022/08/12 07:46:42;;;;;;;1999.90;999.90;;;24.40;80.00;;;;;;4974193;28;20448;-67
2022/08/12 07:49:15;;;;;;;1999.90;999.90;;;24.50;74.80;;;;;;4973826;28;20388;-67
2022/08/12 07:51:42;;;;;;;1999.90;999.90;;;24.70;72.40;;;;;;4974204;28;20389;-67
2022/08/12 07:54:08;;;;;;;1999.90;999.90;;;24.80;68.70;;;;;;4973747;28;20420;-67
2022/08/12 07:56:38;;;;;;;1999.90;999.90;;;25.00;65.60;;;;;;4973606;28;20556;-67
2022/08/12 07:59:07;;;;;;;1999.90;999.90;;;25.20;64.30;;;;;;4974137;28;20409;-67
2022/08/12 08:01:33;;;;;;;1999.90;999.90;;;25.30;61.30;;;;;;4973170;28;20807;-67
2022/08/12 08:06:44;;;;;;;1999.90;999.90;;;25.50;57.50;;;;;;4972945;28;20429;-67
2022/08/12 08:09:12;;;;;;;1999.90;999.90;;;25.70;56.20;;;;;;4972820;28;20417;-67
2022/08/12 08:14:28;;;;;;;1999.90;999.90;;;25.90;53.40;;;;;;4974561;28;20420;-69
2022/08/12 08:16:55;;;;;;;1999.90;999.90;;;26.00;50.50;;;;;;4973807;28;20495;-69
2022/08/12 08:19:24;;;;;;;1999.90;999.90;;;26.10;50.10;;;;;;4974131;28;20384;-70
2022/08/12 08:21:51;;;;;;;1999.90;999.90;;;26.20;48.20;;;;;;4974266;28;20916;-69
2022/08/12 08:24:17;;;;;;;1999.90;999.90;;;26.30;47.50;;;;;;4974153;28;20412;-69
2022/08/12 08:26:47;;;;;;;1999.90;999.90;;;26.40;45.80;;;;;;4973423;28;20437;-69
2022/08/12 08:29:14;;;;;;;1999.90;999.90;;;26.50;45.30;;;;;;4974274;28;20777;-69
2022/08/12 08:31:42;;;;;;;1999.90;999.90;;;26.50;43.80;;;;;;4973964;28;20406;-70
2022/08/12 08:34:11;;;;;;;1999.90;999.90;;;26.50;44.40;;;;;;4974008;28;20488;-69
2022/08/12 08:36:38;;;;;;;1999.90;999.90;;;26.60;44.00;;;;;;4973451;28;20444;-69
2022/08/12 08:39:05;;;;;;;1999.90;999.90;;;26.70;43.10;;;;;;4974204;28;20971;-69
2022/08/12 08:44:15;;;;;;;1999.90;999.90;;;26.90;41.90;;;;;;5005341;28;20419;-70
2022/08/12 08:46:43;;;;;;;1999.90;999.90;;;27.00;40.60;;;;;;5010340;28;20586;-71
2022/08/12 08:49:10;;;;;;;1999.90;999.90;;;27.10;41.10;;;;;;5010801;28;20412;-71
2022/08/12 08:51:37;;;;;;;1999.90;999.90;;;27.20;40.20;;;;;;5010437;28;20476;-71
2022/08/12 08:54:05;;;;;;;1999.90;999.90;;;27.30;39.20;;;;;;5011088;28;20937;-70
2022/08/12 08:56:31;;;;;;;1999.90;999.90;;;27.50;38.90;;;;;;5010679;28;20447;-70
2022/08/12 08:58:57;;;;;;;1999.90;999.90;;;27.60;37.80;;;;;;5010540;28;20404;-69
2022/08/12 09:01:23;;;;;;;1999.90;999.90;;;27.70;37.60;;;;;;5011226;28;20882;-68
2022/08/12 09:03:49;;;;;;;1999.90;999.90;;;27.80;36.80;;;;;;5011614;28;20396;-70
2022/08/12 09:06:15;;;;;;;1999.90;999.90;;;27.90;36.20;;;;;;5010361;28;20428;-70
2022/08/12 09:08:43;;;;;;;1999.90;999.90;;;28.00;35.60;;;;;;5011893;28;20177;-69
2022/08/12 09:13:55;;;;;;;1999.90;999.90;;;28.20;34.70;;;;;;4975097;28;20489;-70
2022/08/12 09:16:21;;;;;;;1999.90;999.90;;;28.30;33.40;;;;;;5015345;28;20462;-70
2022/08/12 09:18:47;;;;;;;1999.90;999.90;;;28.50;33.10;;;;;;5015177;28;20208;-69
2022/08/12 09:21:13;;;;;;;1999.90;999.90;;;28.50;32.20;;;;;;5015150;28;20165;-70
2022/08/12 09:23:39;;;;;;;1999.90;999.90;;;28.60;31.90;;;;;;5014933;28;20474;-71
2022/08/12 09:26:08;;;;;;;1999.90;999.90;;;28.70;30.20;;;;;;5014207;28;20188;-71
2022/08/12 09:28:34;;;;;;;1999.90;999.90;;;28.70;29.70;;;;;;5015180;28;20434;-70
2022/08/12 09:31:00;;;;;;;1999.90;999.90;;;28.80;30.00;;;;;;5014900;28;20414;-71
2022/08/12 09:33:33;;;;;;;1999.90;999.90;;;28.90;29.70;;;;;;5014255;28;20546;-71
2022/08/12 09:36:00;;;;;;;1999.90;999.90;;;29.00;29.40;;;;;;5014406;28;20590;-71
2022/08/12 09:38:27;;;;;;;1999.90;999.90;;;29.10;28.90;;;;;;5013833;28;20489;-71
2022/08/12 09:40:53;;;;;;;1999.90;999.90;;;29.20;28.90;;;;;;5014292;28;21286;-71
2022/08/12 09:46:03;;;;;;;1999.90;999.90;;;29.40;27.80;;;;;;5013903;28;20207;-69
2022/08/12 09:48:29;;;;;;;1999.90;999.90;;;29.40;27.70;;;;;;5014742;28;20412;-69
2022/08/12 09:50:55;;;;;;;1999.90;999.90;;;29.40;27.70;;;;;;5014472;28;20169;-69
2022/08/12 09:53:23;;;;;;;1999.90;999.90;;;29.50;28.00;;;;;;5014501;28;20411;-69
2022/08/12 09:55:53;;;;;;;1999.90;999.90;;;29.60;27.00;;;;;;5014432;28;20224;-69
2022/08/12 09:58:27;;;;;;;1999.90;999.90;;;29.70;26.80;;;;;;5014076;28;20404;-69
2022/08/12 10:01:00;;;;;;;1999.90;999.90;;;29.80;26.50;;;;;;5014526;28;20482;-69
2022/08/12 10:03:35;;;;;;;1999.90;999.90;;;29.80;26.20;;;;;;5014429;28;20410;-69
2022/08/12 10:06:05;;;;;;;1999.90;999.90;;;30.00;26.10;;;;;;5013695;28;20462;-69
2022/08/12 10:08:32;;;;;;;1999.90;999.90;;;30.10;25.80;;;;;;5014251;28;20888;-69
2022/08/12 10:13:47;;;;;;;1999.90;999.90;;;30.40;24.30;;;;;;5014451;28;20911;-69
2022/08/12 10:16:12;;;;;;;1999.90;999.90;;;30.60;23.10;;;;;;5013690;28;20538;-69
2022/08/12 10:18:43;;;;;;;1999.90;999.90;;;30.70;22.30;;;;;;5013722;28;20499;-69
2022/08/12 10:21:18;;;;;;;1999.90;999.90;;;30.70;21.10;;;;;;5014286;28;20184;-69
2022/08/12 10:23:47;;;;;;;1999.90;999.90;;;30.70;19.80;;;;;;5013588;28;20434;-69
2022/08/12 10:31:45;;;;;;;1999.90;999.90;;;30.90;21.20;;;;;;5014369;28;20546;-69
2022/08/12 10:34:12;;;;;;;1999.90;999.90;;;31.00;21.00;;;;;;5014069;28;20408;-69
2022/08/12 10:36:42;;;;;;;1999.90;999.90;;;31.10;20.90;;;;;;5013548;28;20567;-69
2022/08/12 10:39:12;;;;;;;1999.90;999.90;;;31.20;20.80;;;;;;5013168;28;20400;-69
2022/08/12 10:44:22;;;;;;;1999.90;999.90;;;31.50;20.20;;;;;;5014072;28;20383;-69
2022/08/12 10:46:51;;;;;;;1999.90;999.90;;;31.60;19.40;;;;;;5012619;28;20435;-69
2022/08/12 10:49:18;;;;;;;1999.90;999.90;;;31.60;19.80;;;;;;5013540;28;20454;-69
2022/08/12 10:51:47;;;;;;;1999.90;999.90;;;31.70;19.50;;;;;;5013521;28;20403;-69
2022/08/12 10:54:15;;;;;;;1999.90;999.90;;;31.90;19.20;;;;;;5013711;28;20446;-69
2022/08/12 10:56:44;;;;;;;1999.90;999.90;;;32.10;18.60;;;;;;5013207;28;20455;-69
2022/08/12 10:59:10;;;;;;;1999.90;999.90;;;32.20;18.10;;;;;;5012750;28;20400;-69
2022/08/12 11:01:35;;;;;;;1999.90;999.90;;;32.20;17.60;;;;;;5013326;28;20786;-69
2022/08/12 11:04:04;;;;;;;1999.90;999.90;;;32.40;17.20;;;;;;5013164;28;20439;-69
2022/08/12 11:06:29;;;;;;;1999.90;999.90;;;32.50;16.70;;;;;;5012135;28;20284;-69
2022/08/12 11:08:55;;;;;;;1999.90;999.90;;;32.50;16.10;;;;;;5012961;28;20487;-69
2022/08/12 11:11:23;;;;;;;1999.90;999.90;;;32.50;16.20;;;;;;5013079;28;20177;-69
2022/08/12 11:13:49;;;;;;;1999.90;999.90;;;32.70;16.20;;;;;;5012028;28;20470;-69
2022/08/12 11:16:17;;;;;;;1999.90;999.90;;;32.70;15.50;;;;;;5012390;28;20443;-69
2022/08/12 11:18:43;;;;;;;1999.90;999.90;;;32.90;15.10;;;;;;5012198;28;20180;-69
2022/08/12 11:21:09;;;;;;;1999.90;999.90;;;32.90;14.80;;;;;;5013033;28;20404;-69
2022/08/12 11:23:35;;;;;;;1999.90;999.90;;;33.00;14.80;;;;;;5012488;28;20466;-69
2022/08/12 11:26:00;;;;;;;1999.90;999.90;;;33.10;14.70;;;;;;5012465;28;20197;-69
2022/08/12 11:28:26;;;;;;;1999.90;999.90;;;33.30;13.90;;;;;;5013270;28;20165;-69
2022/08/12 11:30:52;;;;;;;1999.90;999.90;;;33.40;13.70;;;;;;5013008;28;20599;-69
2022/08/12 11:33:17;;;;;;;1999.90;999.90;;;33.40;13.70;;;;;;5014749;28;20408;-70
2022/08/12 11:35:43;;;;;;;1999.90;999.90;;;33.30;11.60;;;;;;5015877;28;20204;-69
2022/08/12 11:38:09;;;;;;;1999.90;999.90;;;33.40;12.50;;;;;;5016817;28;20203;-69
2022/08/12 11:40:35;;;;;;;1999.90;999.90;;;33.40;11.80;;;;;;5017391;28;20236;-70
2022/08/12 11:43:01;;;;;;;1999.90;999.90;;;33.60;12.70;;;;;;5018301;28;20825;-70
2022/08/12 11:45:28;;;;;;;1999.90;999.90;;;33.80;12.10;;;;;;5018731;28;20427;-70
2022/08/12 11:47:55;;;;;;;1999.90;999.90;;;33.90;12.90;;;;;;5016764;28;20912;-70
2022/08/12 11:50:22;;;;;;;1999.90;999.90;;;34.00;11.30;;;;;;5016907;28;20777;-70
2022/08/12 11:52:49;;;;;;;1999.90;999.90;;;34.00;11.10;;;;;;5015545;28;20438;-69
2022/08/12 11:55:15;;;;;;;1999.90;999.90;;;34.20;11.30;;;;;;5012522;28;20492;-69
2022/08/12 11:57:54;;;;;;;1999.90;999.90;;;34.20;11.00;;;;;;5012462;28;20412;-69
2022/08/12 12:00:20;;;;;;;1999.90;999.90;;;34.40;10.50;;;;;;5012691;28;20396;-69
2022/08/12 12:02:47;;;;;;;1999.90;999.90;;;34.70;10.40;;;;;;5012642;28;20404;-69
2022/08/12 12:05:14;;;;;;;1999.90;999.90;;;35.30;10.00;;;;;;5015757;28;20404;-69
2022/08/12 12:07:43;;;;;;;1999.90;999.90;;;36.00;9.90;;;;;;5019074;28;20400;-69
2022/08/12 12:10:14;;;;;;;1999.90;999.90;;;36.80;7.70;;;;;;5017028;28;20488;-70
2022/08/12 12:12:40;;;;;;;1999.90;999.90;;;37.70;7.10;;;;;;5017641;28;20834;-70
2022/08/12 12:15:07;;;;;;;1999.90;999.90;;;38.40;6.30;;;;;;5017766;28;20408;-70
2022/08/12 12:17:40;;;;;;;1999.90;999.90;;;39.00;5.20;;;;;;5019085;28;20553;-70
2022/08/12 12:20:09;;;;;;;1999.90;999.90;;;39.50;4.60;;;;;;5019847;28;20411;-69
2022/08/12 12:22:40;;;;;;;1999.90;999.90;;;40.00;5.10;;;;;;5017591;28;20933;-70
2022/08/12 12:25:07;;;;;;;1999.90;999.90;;;40.60;4.20;;;;;;5018767;28;20458;-70
2022/08/12 12:27:55;;;;;;;1999.90;999.90;;;40.60;3.90;;;;;;5018789;28;20443;-70
2022/08/12 12:30:21;;;;;;;1999.90;999.90;;;40.50;3.00;;;;;;5018242;28;20434;-70
2022/08/12 12:32:46;;;;;;;1999.90;999.90;;;40.60;4.00;;;;;;5018748;28;20411;-70
2022/08/12 12:35:12;;;;;;;1999.90;999.90;;;41.00;3.20;;;;;;5020564;28;20233;-70
2022/08/12 12:37:54;;;;;;;1999.90;999.90;;;41.50;2.80;;;;;;5020236;28;20240;-70
2022/08/12 12:40:20;;;;;;;1999.90;999.90;;;42.10;2.40;;;;;;5020963;28;20177;-70
2022/08/12 12:42:46;;;;;;;1999.90;999.90;;;42.40;1.00;;;;;;5021399;28;20436;-70
2022/08/12 12:45:12;;;;;;;1999.90;999.90;;;42.50;1.20;;;;;;5011384;28;20427;-68
2022/08/12 12:48:00;;;;;;;1999.90;999.90;;;42.70;1.30;;;;;;5017305;28;20180;-69
2022/08/12 12:50:29;;;;;;;1999.90;999.90;;;43.00;1.20;;;;;;5016655;28;20446;-68
2022/08/12 12:52:55;;;;;;;1999.90;999.90;;;43.30;1.00;;;;;;5018035;28;20510;-70
2022/08/12 12:55:21;;;;;;;1999.90;999.90;;;43.60;1.00;;;;;;5015352;28;20621;-66
2022/08/12 12:57:47;;;;;;;1999.90;999.90;;;43.80;1.00;;;;;;5018310;28;20259;-70
2022/08/12 13:00:16;;;;;;;1999.90;999.90;;;44.00;1.00;;;;;;5022138;28;20431;-69
2022/08/12 13:02:44;;;;;;;1999.90;999.90;;;44.20;1.00;;;;;;5020817;28;20404;-71
2022/08/12 13:05:11;;;;;;;1999.90;999.90;;;44.30;1.00;;;;;;5021295;28;20407;-71
2022/08/12 13:07:39;;;;;;;1999.90;999.90;;;44.60;1.00;;;;;;5020619;28;20415;-70
2022/08/12 13:10:05;;;;;;;1999.90;999.90;;;44.90;1.00;;;;;;5018564;28;20418;-70
2022/08/12 13:12:32;;;;;;;1999.90;999.90;;;44.80;1.00;;;;;;5021447;28;20419;-70
2022/08/12 13:14:58;;;;;;;1999.90;999.90;;;44.90;1.00;;;;;;5019940;28;20498;-71
2022/08/12 13:17:24;;;;;;;1999.90;999.90;;;45.10;1.00;;;;;;5020521;28;20489;-70
2022/08/12 13:19:49;;;;;;;1999.90;999.90;;;45.30;1.00;;;;;;5021650;28;20184;-70
2022/08/12 13:22:16;;;;;;;1999.90;999.90;;;45.50;1.00;;;;;;5022993;28;20169;-70
2022/08/12 13:24:42;;;;;;;1999.90;999.90;;;45.70;1.00;;;;;;5026050;28;20177;-70
2022/08/12 13:27:08;;;;;;;1999.90;999.90;;;45.60;1.00;;;;;;5023711;28;20429;-70
2022/08/12 13:29:37;;;;;;;1999.90;999.90;;;45.80;1.00;;;;;;5023578;28;20188;-69
2022/08/12 13:32:04;;;;;;;1999.90;999.90;;;46.00;1.00;;;;;;5023722;28;20196;-70
2022/08/12 13:34:31;;;;;;;1999.90;999.90;;;46.20;1.00;;;;;;5024178;28;20407;-69
2022/08/12 13:36:57;;;;;;;1999.90;999.90;;;46.20;1.00;;;;;;5020293;28;20463;-70
2022/08/12 13:39:23;;;;;;;1999.90;999.90;;;46.40;1.00;;;;;;5015068;28;20404;-70
2022/08/12 13:41:48;;;;;;;1999.90;999.90;;;46.50;1.00;;;;;;5014766;28;20422;-70
2022/08/12 13:44:14;;;;;;;1999.90;999.90;;;46.50;1.00;;;;;;5014783;28;20173;-70
2022/08/12 13:46:40;;;;;;;1999.90;999.90;;;46.10;1.00;;;;;;5014328;28;20200;-70
2022/08/12 13:49:10;;;;;;;1999.90;999.90;;;45.90;1.00;;;;;;5014614;28;20180;-70
2022/08/12 13:51:36;;;;;;;1999.90;999.90;;;46.20;1.00;;;;;;5014392;28;20418;-70
2022/08/12 13:54:05;;;;;;;1999.90;999.90;;;45.70;1.00;;;;;;5014892;28;20408;-70
2022/08/12 13:56:35;;;;;;;1999.90;999.90;;;45.90;1.00;;;;;;5013993;28;20451;-70
2022/08/12 13:59:06;;;;;;;1999.90;999.90;;;46.20;1.00;;;;;;5013610;28;20479;-70
2022/08/12 14:01:33;;;;;;;1999.90;999.90;;;46.30;1.00;;;;;;5014514;28;20407;-70
2022/08/12 14:04:03;;;;;;;1999.90;999.90;;;46.30;1.00;;;;;;5014676;28;20751;-71